createdAt,value
2022-11-10T00:01:05.687Z,96.5
2022-11-10T00:02:14.872Z,96.5
2022-11-10T00:03:24.046Z,97.5
2022-11-10T00:04:33.205Z,96.5
2022-11-10T00:05:41.396Z,96.5
2022-11-10T00:06:50.556Z,96.5
2022-11-10T00:07:59.731Z,96.5
2022-11-10T00:09:08.906Z,97.5
2022-11-10T00:10:18.108Z,97
2022-11-10T00:11:27.247Z,97
2022-11-10T00:12:36.420Z,96.5
2022-11-10T00:13:44.607Z,97
2022-11-10T00:14:52.804Z,97.5
2022-11-10T00:16:01.974Z,97.5
2022-11-10T00:17:11.146Z,97
2022-11-10T00:18:19.372Z,97.5
2022-11-10T00:19:27.536Z,98
2022-11-10T00:20:36.707Z,97
2022-11-10T00:22:55.049Z,97.5
2022-11-10T00:24:04.246Z,97
2022-11-10T00:25:13.399Z,97.5
2022-11-10T00:26:22.611Z,97
2022-11-10T00:27:31.804Z,97.5
2022-11-10T00:28:40.965Z,97.5
2022-11-10T00:29:50.078Z,97.5
2022-11-10T00:30:59.259Z,98
2022-11-10T00:32:08.429Z,97
2022-11-10T00:33:17.602Z,97.5
2022-11-10T00:34:25.864Z,97.5
2022-11-10T00:35:35.053Z,97.5
2022-11-10T00:36:44.138Z,98
2022-11-10T00:37:53.299Z,96.5
2022-11-10T00:39:02.483Z,97
2022-11-10T00:40:11.707Z,97.5
2022-11-10T00:41:20.899Z,97.5
2022-11-10T00:42:29.999Z,97.5
2022-11-10T00:43:39.185Z,98
2022-11-10T00:44:47.360Z,98
2022-11-10T00:45:55.547Z,98
2022-11-10T00:47:04.796Z,97.5
2022-11-10T00:48:13.906Z,98
2022-11-10T00:49:22.115Z,98
2022-11-10T00:50:31.279Z,97.5
2022-11-10T00:51:39.453Z,97.5
2022-11-10T00:52:48.624Z,98
2022-11-10T00:53:57.869Z,98.5
2022-11-10T00:55:07.041Z,98
2022-11-10T00:56:16.182Z,98.5
2022-11-10T00:57:25.307Z,98.5
2022-11-10T00:58:34.490Z,98.5
2022-11-10T00:59:43.661Z,98.5
2022-11-10T01:00:52.839Z,98.5
2022-11-10T01:02:01.997Z,98
2022-11-10T01:03:11.225Z,98.5
2022-11-10T01:04:20.350Z,98
2022-11-10T01:05:29.584Z,98.5
2022-11-10T01:06:37.711Z,98
2022-11-10T01:07:46.873Z,98
2022-11-10T01:08:56.053Z,98
2022-11-10T01:10:05.284Z,98.5
2022-11-10T01:12:23.581Z,98
2022-11-10T01:13:32.815Z,98
2022-11-10T01:14:40.947Z,98.5
2022-11-10T01:15:49.224Z,98
2022-11-10T01:16:58.357Z,98
2022-11-10T01:18:07.473Z,98.5
2022-11-10T01:19:16.643Z,98.5
2022-11-10T01:20:25.903Z,99
2022-11-10T01:21:34.980Z,98.5
2022-11-10T01:22:44.159Z,98.5
2022-11-10T01:23:53.339Z,98.5
2022-11-10T01:25:02.569Z,98
2022-11-10T01:26:11.678Z,98.5
2022-11-10T01:27:20.850Z,98.5
2022-11-10T01:28:30.025Z,98.5
2022-11-10T01:29:39.190Z,99
2022-11-10T01:30:47.434Z,99.5
2022-11-10T01:31:56.556Z,99
2022-11-10T01:33:05.723Z,99
2022-11-10T01:34:14.904Z,98.5
2022-11-10T01:35:24.119Z,99
2022-11-10T01:36:33.305Z,99.5
2022-11-10T01:37:42.461Z,99
2022-11-10T01:38:50.630Z,99
2022-11-10T01:39:58.801Z,99.5
2022-11-10T01:41:07.094Z,99
2022-11-10T01:42:15.186Z,99
2022-11-10T01:43:23.426Z,99.5
2022-11-10T01:44:31.559Z,99.5
2022-11-10T01:45:40.730Z,99.5
2022-11-10T01:46:49.956Z,99.5
2022-11-10T01:47:59.077Z,99.5
2022-11-10T01:49:08.324Z,99.5
2022-11-10T01:50:17.515Z,99.5
2022-11-10T01:51:26.594Z,99
2022-11-10T01:52:34.876Z,99.5
2022-11-10T01:53:43.967Z,99.5
2022-11-10T01:54:53.183Z,99.5
2022-11-10T01:56:02.310Z,99.5
2022-11-10T01:57:11.495Z,99.5
2022-11-10T01:58:20.669Z,99.5
2022-11-10T01:59:29.826Z,99.5
2022-11-10T02:00:38.994Z,99.5
2022-11-10T02:01:48.171Z,99.5
2022-11-10T02:02:57.344Z,99.5
2022-11-10T02:04:06.519Z,99.5
2022-11-10T02:05:15.771Z,99.5
2022-11-10T02:06:24.893Z,99.5
2022-11-10T02:07:33.060Z,99.5
2022-11-10T02:08:41.273Z,99.5
2022-11-10T02:09:50.413Z,99.5
2022-11-10T02:10:59.589Z,99.5
2022-11-10T02:12:07.776Z,99.5
2022-11-10T02:13:15.967Z,99.5
2022-11-10T02:14:25.189Z,99.5
2022-11-10T02:15:34.320Z,99.5
2022-11-10T02:16:43.475Z,99.5
2022-11-10T02:17:52.663Z,99.5
2022-11-10T02:19:01.825Z,99.5
2022-11-10T02:20:11.003Z,99.5
2022-11-10T02:21:20.170Z,99.5
2022-11-10T02:22:29.350Z,99.5
2022-11-10T02:23:38.523Z,99.5
2022-11-10T02:24:47.687Z,99.5
2022-11-10T02:25:56.868Z,99.5
2022-11-10T02:27:06.034Z,99.5
2022-11-10T02:28:14.233Z,99.5
2022-11-10T02:29:23.395Z,99.5
2022-11-10T02:30:32.567Z,99.5
2022-11-10T02:31:41.752Z,99.5
2022-11-10T02:32:50.912Z,99.5
2022-11-10T02:34:00.151Z,99.5
2022-11-10T02:35:09.267Z,99.5
2022-11-10T02:36:17.448Z,99.5
2022-11-10T02:37:25.761Z,99.5
2022-11-10T02:38:34.878Z,99.5
2022-11-10T02:39:43.979Z,99.5
2022-11-10T02:40:53.158Z,99.5
2022-11-10T02:42:02.335Z,99.5
2022-11-10T02:43:11.538Z,99.5
2022-11-10T02:44:20.674Z,99.5
2022-11-10T02:45:29.915Z,99.5
2022-11-10T02:46:39.025Z,99.5
2022-11-10T02:47:48.190Z,99.5
2022-11-10T02:48:57.390Z,99.5
2022-11-10T02:50:06.539Z,99.5
2022-11-10T02:51:15.724Z,99.5
2022-11-10T02:52:23.896Z,99.5
2022-11-10T02:53:33.070Z,99.5
2022-11-10T02:54:42.262Z,99.5
2022-11-10T02:55:51.416Z,99.5
2022-11-10T02:57:00.582Z,99.5
2022-11-10T02:58:09.762Z,99.5
2022-11-10T02:59:18.932Z,99.5
2022-11-10T03:00:27.119Z,99.5
2022-11-10T03:01:35.320Z,99.5
2022-11-10T03:02:44.519Z,99.5
2022-11-10T03:03:53.662Z,99.5
2022-11-10T03:05:02.834Z,99.5
2022-11-10T03:06:12.001Z,99.5
2022-11-10T03:07:21.184Z,99.5
2022-11-10T03:08:30.343Z,99.5
2022-11-10T03:09:39.525Z,99.5
2022-11-10T03:10:48.689Z,99.5
2022-11-10T03:11:57.870Z,99.5
2022-11-10T03:13:07.045Z,99.5
2022-11-10T03:14:16.299Z,99.5
2022-11-10T03:15:25.389Z,99.5
2022-11-10T03:16:33.562Z,99.5
2022-11-10T03:17:42.751Z,99.5
2022-11-10T03:18:51.925Z,99.5
2022-11-10T03:20:01.099Z,99.5
2022-11-10T03:21:10.331Z,99.5
2022-11-10T03:22:19.433Z,99.5
2022-11-10T03:23:28.610Z,99.5
2022-11-10T03:24:36.800Z,99.5
2022-11-10T03:25:45.000Z,99.5
2022-11-10T03:26:54.162Z,99.5
2022-11-10T03:28:03.341Z,99.5
2022-11-10T03:29:12.511Z,99.5
2022-11-10T03:30:21.678Z,99.5
2022-11-10T03:31:30.849Z,99.5
2022-11-10T03:32:40.035Z,99.5
2022-11-10T03:33:49.205Z,99.5
2022-11-10T03:34:58.380Z,99.5
2022-11-10T03:36:07.541Z,99.5
2022-11-10T03:37:16.755Z,99.5
2022-11-10T03:38:25.894Z,99.5
2022-11-10T03:39:35.066Z,99.5
2022-11-10T03:40:43.254Z,99.5
2022-11-10T03:41:52.423Z,99.5
2022-11-10T03:43:01.621Z,99.5
2022-11-10T03:44:10.906Z,99.5
2022-11-10T03:45:20.024Z,99.5
2022-11-10T03:46:29.112Z,99.5
2022-11-10T03:47:38.289Z,99.5
2022-11-10T03:48:46.489Z,99.5
2022-11-10T03:49:55.654Z,99.5
2022-11-10T03:51:03.852Z,99.5
2022-11-10T03:52:12.055Z,99.5
2022-11-10T03:53:20.221Z,99.5
2022-11-10T03:54:28.477Z,99.5
2022-11-10T03:55:36.622Z,99.5
2022-11-10T03:56:45.796Z,99.5
2022-11-10T03:57:54.951Z,99.5
2022-11-10T03:59:03.147Z,99.5
2022-11-10T04:00:12.320Z,99.5
2022-11-10T04:01:21.487Z,99.5
2022-11-10T04:02:30.737Z,99.5
2022-11-10T04:03:39.829Z,99.5
2022-11-10T04:04:49.084Z,99.5
2022-11-10T04:05:58.182Z,99.5
2022-11-10T04:07:07.358Z,99.5
2022-11-10T04:08:16.516Z,99.5
2022-11-10T04:09:25.735Z,99.5
2022-11-10T04:10:34.920Z,99.5
2022-11-10T04:11:44.039Z,99.5
2022-11-10T04:12:53.225Z,99.5
2022-11-10T04:14:01.409Z,99.5
2022-11-10T04:15:10.605Z,99.5
2022-11-10T04:16:19.822Z,99.5
2022-11-10T04:17:28.914Z,99.5
2022-11-10T04:18:38.085Z,99.5
2022-11-10T04:19:46.289Z,99.5
2022-11-10T04:20:54.474Z,99.5
2022-11-10T04:22:02.668Z,99.5
2022-11-10T04:23:10.862Z,99.5
2022-11-10T04:24:20.025Z,99.5
2022-11-10T04:25:29.201Z,99.5
2022-11-10T04:26:38.485Z,99.5
2022-11-10T04:27:47.550Z,99.5
2022-11-10T04:28:56.706Z,99.5
2022-11-10T04:30:05.882Z,99.5
2022-11-10T04:31:15.058Z,99.5
2022-11-10T04:32:24.237Z,99.5
2022-11-10T04:33:33.418Z,99.5
2022-11-10T04:34:42.577Z,99.5
2022-11-10T04:35:51.815Z,99.5
2022-11-10T04:37:00.965Z,99.5
2022-11-10T04:38:10.135Z,99.5
2022-11-10T04:39:18.319Z,99.5
2022-11-10T04:40:27.478Z,99.5
2022-11-10T04:41:36.642Z,99.5
2022-11-10T04:42:45.796Z,99.5
2022-11-10T04:43:55.039Z,99.5
2022-11-10T04:45:04.141Z,99.5
2022-11-10T04:46:12.375Z,99.5
2022-11-10T04:47:20.523Z,99.5
2022-11-10T04:48:29.703Z,99.5
2022-11-10T04:49:38.877Z,99.5
2022-11-10T04:50:48.039Z,99.5
2022-11-10T04:51:57.232Z,99.5
2022-11-10T04:53:06.383Z,99.5
2022-11-10T04:54:15.571Z,99.5
2022-11-10T04:55:24.730Z,99.5
2022-11-10T04:56:33.898Z,99.5
2022-11-10T04:57:43.071Z,99.5
2022-11-10T04:58:52.265Z,99.5
2022-11-10T05:00:01.437Z,99.5
2022-11-10T05:01:10.591Z,99.5
2022-11-10T05:02:18.803Z,99.5
2022-11-10T05:03:27.987Z,99.5
2022-11-10T05:04:37.173Z,99.5
2022-11-10T05:05:46.301Z,99.5
2022-11-10T05:06:55.541Z,99.5
2022-11-10T05:08:04.646Z,99.5
2022-11-10T05:09:13.832Z,99.5
2022-11-10T05:10:22.014Z,99.5
2022-11-10T05:11:30.199Z,99.5
2022-11-10T05:12:38.432Z,99.5
2022-11-10T05:13:46.629Z,99.5
2022-11-10T05:14:55.758Z,99.5
2022-11-10T05:16:04.927Z,99.5
2022-11-10T05:17:14.097Z,99.5
2022-11-10T05:18:22.287Z,99.5
2022-11-10T05:19:30.488Z,99.5
2022-11-10T05:20:39.644Z,99.5
2022-11-10T05:21:48.822Z,99.5
2022-11-10T05:22:58.006Z,99.5
2022-11-10T05:24:07.221Z,99.5
2022-11-10T05:25:16.375Z,99.5
2022-11-10T05:26:25.516Z,99.5
2022-11-10T05:27:34.686Z,99.5
2022-11-10T05:28:43.884Z,99.5
2022-11-10T05:29:53.035Z,99.5
2022-11-10T05:31:02.208Z,99.5
2022-11-10T05:32:11.400Z,99.5
2022-11-10T05:33:20.615Z,99.5
2022-11-10T05:34:28.743Z,99.5
2022-11-10T05:35:37.907Z,99.5
2022-11-10T05:36:47.084Z,99.5
2022-11-10T05:37:56.261Z,99.5
2022-11-10T05:39:05.428Z,99.5
2022-11-10T05:40:14.641Z,99.5
2022-11-10T05:41:23.765Z,99.5
2022-11-10T05:42:31.978Z,99.5
2022-11-10T05:43:40.159Z,99.5
2022-11-10T05:44:48.365Z,99.5
2022-11-10T05:45:56.542Z,99.5
2022-11-10T05:47:05.713Z,99.5
2022-11-10T05:48:14.896Z,99.5
2022-11-10T05:49:24.059Z,99.5
2022-11-10T05:50:33.229Z,99.5
2022-11-10T05:51:42.413Z,99.5
2022-11-10T05:52:51.578Z,99.5
2022-11-10T05:54:00.752Z,99.5
2022-11-10T05:55:09.916Z,99.5
2022-11-10T05:56:19.095Z,99.5
2022-11-10T05:57:28.320Z,99.5
2022-11-10T05:58:37.439Z,99.5
2022-11-10T05:59:46.620Z,99.5
2022-11-10T06:00:54.803Z,99.5
2022-11-10T06:02:04.069Z,99.5
2022-11-10T06:03:13.148Z,99.5
2022-11-10T06:04:22.380Z,99.5
2022-11-10T06:05:31.503Z,99.5
2022-11-10T06:06:40.669Z,99.5
2022-11-10T06:07:49.915Z,99.5
2022-11-10T06:08:58.063Z,99.5
2022-11-10T06:10:06.318Z,99.5
2022-11-10T06:11:15.389Z,99.5
2022-11-10T06:12:24.563Z,99.5
2022-11-10T06:13:33.729Z,99.5
2022-11-10T06:14:42.918Z,99.5
2022-11-10T06:15:52.146Z,99.5
2022-11-10T06:17:01.259Z,99.5
2022-11-10T06:18:10.430Z,99.5
2022-11-10T06:19:19.600Z,99.5
2022-11-10T06:20:27.801Z,99.5
2022-11-10T06:21:36.086Z,99.5
2022-11-10T06:23:54.322Z,99.5
2022-11-10T06:25:03.501Z,99.5
2022-11-10T06:26:12.674Z,99.5
2022-11-10T06:27:21.860Z,99.5
2022-11-10T06:28:31.015Z,99.5
2022-11-10T06:29:40.183Z,99.5
2022-11-10T06:30:49.368Z,99.5
2022-11-10T06:31:58.544Z,99.5
2022-11-10T06:33:07.698Z,99.5
2022-11-10T06:34:16.879Z,99.5
2022-11-10T06:35:26.153Z,99.5
2022-11-10T06:36:34.243Z,99.5
2022-11-10T06:37:43.463Z,99.5
2022-11-10T06:38:52.581Z,99.5
2022-11-10T06:40:01.772Z,99.5
2022-11-10T06:41:10.923Z,99.5
2022-11-10T06:42:20.132Z,99.5
2022-11-10T06:43:29.260Z,99.5
2022-11-10T06:44:38.448Z,99.5
2022-11-10T06:45:47.633Z,99.5
2022-11-10T06:46:56.808Z,99.5
2022-11-10T06:48:06.021Z,99.5
2022-11-10T06:49:15.149Z,99.5
2022-11-10T06:50:24.455Z,99.5
2022-11-10T06:51:32.510Z,99.5
2022-11-10T06:52:41.665Z,99.5
2022-11-10T06:55:00.004Z,99.5
2022-11-10T06:56:09.239Z,99.5
2022-11-10T06:57:18.444Z,99.5
2022-11-10T06:58:27.533Z,99.5
2022-11-10T06:59:36.726Z,99.5
2022-11-10T07:00:45.921Z,99.5
2022-11-10T07:01:55.057Z,99.5
2022-11-10T07:03:04.221Z,99.5
2022-11-10T07:04:13.383Z,99.5
2022-11-10T07:05:22.570Z,99.5
2022-11-10T07:06:30.890Z,99.5
2022-11-10T07:07:39.932Z,99.5
2022-11-10T07:08:49.094Z,99.5
2022-11-10T07:09:58.323Z,99.5
2022-11-10T07:11:07.470Z,99.5
2022-11-10T07:12:16.611Z,99.5
2022-11-10T07:13:25.793Z,99.5
2022-11-10T07:14:34.968Z,99.5
2022-11-10T07:15:44.138Z,99.5
2022-11-10T07:16:53.413Z,99.5
2022-11-10T07:18:02.488Z,99.5
2022-11-10T07:19:11.699Z,99.5
2022-11-10T07:20:20.823Z,99.5
2022-11-10T07:21:29.064Z,99
2022-11-10T07:22:38.325Z,99
2022-11-10T07:23:47.433Z,99
2022-11-10T07:24:56.533Z,98.5
2022-11-10T07:26:05.704Z,99.5
2022-11-10T07:27:14.907Z,98.5
2022-11-10T07:28:23.069Z,98.5
2022-11-10T07:29:31.277Z,98
2022-11-10T07:30:40.431Z,98
2022-11-10T07:31:49.607Z,97.5
2022-11-10T07:32:57.842Z,97.5
2022-11-10T07:34:05.991Z,97.5
2022-11-10T07:35:15.158Z,98.5
2022-11-10T07:36:24.359Z,97.5
2022-11-10T07:37:33.509Z,97.5
2022-11-10T07:38:42.683Z,97.5
2022-11-10T07:39:51.882Z,97
2022-11-10T07:41:01.043Z,97.5
2022-11-10T07:42:10.203Z,98
2022-11-10T07:43:19.370Z,96.5
2022-11-10T07:44:28.539Z,96.5
2022-11-10T07:45:37.766Z,95.5
2022-11-10T07:46:46.886Z,95.5
2022-11-10T07:47:56.056Z,94
2022-11-10T07:49:04.251Z,93.5
2022-11-10T07:50:13.410Z,95
2022-11-10T07:51:22.586Z,94.5
2022-11-10T07:52:31.761Z,94.5
2022-11-10T07:53:40.939Z,93
2022-11-10T07:54:50.118Z,93.5
2022-11-10T07:55:59.277Z,93.5
2022-11-10T07:57:07.477Z,93
2022-11-10T07:58:15.668Z,93.5
2022-11-10T07:59:23.860Z,93.5
2022-11-10T08:00:32.056Z,93.5
2022-11-10T08:01:41.218Z,92.5
2022-11-10T08:02:50.591Z,94
2022-11-10T08:03:59.644Z,93.5
2022-11-10T08:05:08.883Z,94
2022-11-10T08:06:17.999Z,93
2022-11-10T08:07:27.078Z,93
2022-11-10T08:08:36.247Z,92.5
2022-11-10T08:09:45.468Z,91.5
2022-11-10T08:10:54.591Z,91.5
2022-11-10T08:12:03.768Z,92
2022-11-10T08:13:12.938Z,92.5
2022-11-10T08:14:22.203Z,92
2022-11-10T08:15:30.393Z,91.5
2022-11-10T08:16:39.601Z,92.5
2022-11-10T08:17:48.656Z,91
2022-11-10T08:18:57.933Z,90.5
2022-11-10T08:20:07.070Z,91
2022-11-10T08:21:16.160Z,91
2022-11-10T08:22:25.411Z,92.5
2022-11-10T08:23:33.531Z,92
2022-11-10T08:24:41.882Z,92
2022-11-10T08:25:50.972Z,91.5
2022-11-10T08:26:59.202Z,91.5
2022-11-10T08:28:07.283Z,92
2022-11-10T08:29:16.492Z,92
2022-11-10T08:30:25.624Z,91
2022-11-10T08:31:34.927Z,90.5
2022-11-10T08:32:43.958Z,89.5
2022-11-10T08:33:53.202Z,91
2022-11-10T08:35:02.302Z,91
2022-11-10T08:36:11.537Z,91
2022-11-10T08:37:20.785Z,92
2022-11-10T08:38:29.870Z,90.5
2022-11-10T08:39:39.040Z,90
2022-11-10T08:41:57.330Z,89.5
2022-11-10T08:43:05.563Z,88.5
2022-11-10T08:44:14.741Z,88
2022-11-10T08:45:23.872Z,88
2022-11-10T08:46:33.077Z,89
2022-11-10T08:47:42.268Z,87.5
2022-11-10T08:48:51.387Z,88
2022-11-10T08:50:00.607Z,88.5
2022-11-10T08:51:09.738Z,88
2022-11-10T08:52:18.922Z,88.5
2022-11-10T08:53:28.110Z,88
2022-11-10T08:54:37.250Z,88
2022-11-10T08:55:46.450Z,87.5
2022-11-10T08:56:54.819Z,87
2022-11-10T08:58:02.805Z,87.5
2022-11-10T08:59:11.986Z,86.5
2022-11-10T09:01:30.326Z,87
2022-11-10T09:02:39.577Z,88
2022-11-10T09:03:47.797Z,88
2022-11-10T09:04:55.873Z,86.5
2022-11-10T09:06:05.146Z,87.5
2022-11-10T09:07:14.311Z,87
2022-11-10T09:08:23.478Z,86.5
2022-11-10T09:09:32.570Z,86
2022-11-10T09:10:41.759Z,86.5
2022-11-10T09:11:50.920Z,85.5
2022-11-10T09:13:00.089Z,85.5
2022-11-10T09:14:09.254Z,86.5
2022-11-10T09:15:18.427Z,87
2022-11-10T09:16:27.595Z,86
2022-11-10T09:17:36.778Z,85
2022-11-10T09:18:45.990Z,85
2022-11-10T09:19:54.132Z,84.5
2022-11-10T09:21:03.335Z,85
2022-11-10T09:22:12.499Z,85.5
2022-11-10T09:23:21.659Z,85.5
2022-11-10T09:24:30.813Z,84.5
2022-11-10T09:25:40.038Z,84
2022-11-10T09:26:49.170Z,85
2022-11-10T09:27:58.339Z,85.5
2022-11-10T09:29:06.528Z,84.5
2022-11-10T09:30:14.722Z,85
2022-11-10T09:31:23.952Z,84.5
2022-11-10T09:32:32.160Z,82.5
2022-11-10T09:33:40.268Z,83.5
2022-11-10T09:34:48.454Z,83.5
2022-11-10T09:35:57.636Z,83
2022-11-10T09:37:06.951Z,85
2022-11-10T09:38:15.988Z,82.5
2022-11-10T09:39:25.166Z,82.5
2022-11-10T09:40:34.338Z,83.5
2022-11-10T09:41:43.674Z,83.5
2022-11-10T09:42:52.727Z,82.5
2022-11-10T09:44:01.840Z,83.5
2022-11-10T09:45:11.019Z,83
2022-11-10T09:46:20.186Z,83
2022-11-10T09:47:29.355Z,83
2022-11-10T09:48:38.538Z,82
2022-11-10T09:49:46.723Z,82.5
2022-11-10T09:50:55.935Z,82
2022-11-10T09:52:05.076Z,82.5
2022-11-10T09:53:14.238Z,83
2022-11-10T09:54:23.412Z,81
2022-11-10T09:55:32.581Z,82
2022-11-10T09:56:40.870Z,81.5
2022-11-10T09:57:48.961Z,80
2022-11-10T09:58:57.212Z,80
2022-11-10T10:00:05.343Z,82.5
2022-11-10T10:01:14.520Z,81.5
2022-11-10T10:02:23.714Z,79.5
2022-11-10T10:03:32.868Z,79.5
2022-11-10T10:04:42.034Z,80.5
2022-11-10T10:05:51.341Z,80
2022-11-10T10:07:00.388Z,81.5
2022-11-10T10:08:09.627Z,80.5
2022-11-10T10:09:18.732Z,79
2022-11-10T10:10:27.975Z,81
2022-11-10T10:11:37.082Z,81
2022-11-10T10:12:46.249Z,80
2022-11-10T10:13:55.423Z,79.5
2022-11-10T10:15:04.624Z,79
2022-11-10T10:16:12.909Z,77.5
2022-11-10T10:17:21.957Z,78
2022-11-10T10:18:31.137Z,78.5
2022-11-10T10:19:40.305Z,79.5
2022-11-10T10:20:49.478Z,81
2022-11-10T10:21:58.711Z,81.5
2022-11-10T10:23:06.857Z,80
2022-11-10T10:24:15.028Z,79
2022-11-10T10:25:23.250Z,79.5
2022-11-10T10:26:31.407Z,82
2022-11-10T10:27:40.579Z,80
2022-11-10T10:28:49.774Z,79
2022-11-10T10:29:58.956Z,80
2022-11-10T10:31:08.155Z,78.5
2022-11-10T10:32:17.268Z,81
2022-11-10T10:33:26.446Z,78.5
2022-11-10T10:34:35.743Z,77
2022-11-10T10:35:44.801Z,76
2022-11-10T10:36:54.018Z,79
2022-11-10T10:38:03.129Z,80
2022-11-10T10:39:12.305Z,81
2022-11-10T10:40:21.470Z,79.5
2022-11-10T10:41:29.675Z,78.5
2022-11-10T10:42:38.842Z,79
2022-11-10T10:43:48.012Z,79.5
2022-11-10T10:44:57.200Z,78.5
2022-11-10T10:46:06.345Z,78
2022-11-10T10:47:15.557Z,78
2022-11-10T10:48:24.697Z,78
2022-11-10T10:49:33.902Z,79.5
2022-11-10T10:50:43.062Z,78.5
2022-11-10T10:51:52.210Z,78
2022-11-10T10:53:01.485Z,78
2022-11-10T10:54:10.569Z,77
2022-11-10T10:55:19.722Z,78
2022-11-10T10:56:27.975Z,78.5
2022-11-10T10:57:37.108Z,78.5
2022-11-10T10:58:46.380Z,77
2022-11-10T10:59:55.551Z,75.5
2022-11-10T11:01:04.601Z,76
2022-11-10T11:02:13.763Z,76.5
2022-11-10T11:03:22.941Z,77
2022-11-10T11:04:32.134Z,77
2022-11-10T11:05:41.284Z,77
2022-11-10T11:06:50.537Z,79
2022-11-10T11:07:59.627Z,76.5
2022-11-10T11:09:08.808Z,76
2022-11-10T11:10:17.982Z,74.5
2022-11-10T11:11:26.204Z,75.5
2022-11-10T11:12:34.427Z,76.5
2022-11-10T11:13:42.545Z,77
2022-11-10T11:14:50.829Z,77
2022-11-10T11:15:58.924Z,75.5
2022-11-10T11:17:08.119Z,77.5
2022-11-10T11:18:17.270Z,77
2022-11-10T11:19:26.431Z,76.5
2022-11-10T11:20:35.610Z,76
2022-11-10T11:21:44.794Z,75.5
2022-11-10T11:22:54.015Z,74.5
2022-11-10T11:24:03.212Z,75
2022-11-10T11:25:12.304Z,75
2022-11-10T11:26:21.567Z,75.5
2022-11-10T11:27:30.640Z,74.5
2022-11-10T11:28:39.816Z,76
2022-11-10T11:29:48.989Z,77
2022-11-10T11:30:57.257Z,77
2022-11-10T11:32:06.482Z,77.5
2022-11-10T11:33:15.515Z,75
2022-11-10T11:34:24.683Z,74
2022-11-10T11:35:33.862Z,76.5
2022-11-10T11:36:43.036Z,76.5
2022-11-10T11:37:52.207Z,75
2022-11-10T11:39:01.385Z,76.5
2022-11-10T11:40:09.583Z,75.5
2022-11-10T11:41:17.763Z,76
2022-11-10T11:42:26.934Z,75
2022-11-10T11:43:35.114Z,74.5
2022-11-10T11:44:43.306Z,75
2022-11-10T11:45:52.497Z,73.5
2022-11-10T11:47:01.662Z,73.5
2022-11-10T11:48:10.814Z,75
2022-11-10T11:49:19.993Z,75.5
2022-11-10T11:50:29.165Z,75
2022-11-10T11:51:38.340Z,75.5
2022-11-10T11:52:47.515Z,75.5
2022-11-10T11:53:56.836Z,74
2022-11-10T11:55:05.855Z,73
2022-11-10T11:56:15.029Z,74
2022-11-10T11:57:24.205Z,73
2022-11-10T11:58:33.432Z,72.5
2022-11-10T11:59:41.553Z,73.5
2022-11-10T12:00:50.737Z,73
2022-11-10T12:01:59.916Z,73
2022-11-10T12:03:09.174Z,75
2022-11-10T12:04:18.293Z,74
2022-11-10T12:05:27.420Z,73
2022-11-10T12:06:36.592Z,74.5
2022-11-10T12:07:44.801Z,73.5
2022-11-10T12:08:53.045Z,74
2022-11-10T12:10:01.240Z,73
2022-11-10T12:11:09.400Z,74
2022-11-10T12:12:18.529Z,77
2022-11-10T12:13:27.699Z,75.5
2022-11-10T12:14:36.879Z,75.5
2022-11-10T12:15:46.111Z,76.5
2022-11-10T12:16:55.224Z,76.5
2022-11-10T12:18:04.389Z,76.5
2022-11-10T12:19:13.575Z,77.5
2022-11-10T12:20:22.736Z,75.5
2022-11-10T12:21:31.908Z,75
2022-11-10T12:22:41.148Z,76
2022-11-10T12:23:50.256Z,77
2022-11-10T12:24:59.429Z,76.5
2022-11-10T12:26:07.615Z,78
2022-11-10T12:27:16.783Z,78
2022-11-10T12:28:26.029Z,78.5
2022-11-10T12:29:35.138Z,77.5
2022-11-10T12:30:44.318Z,74
2022-11-10T12:31:53.481Z,73
2022-11-10T12:33:02.681Z,76
2022-11-10T12:34:11.819Z,76.5
2022-11-10T12:35:20.987Z,74
2022-11-10T12:36:30.172Z,74.5
2022-11-10T12:37:39.339Z,76
2022-11-10T12:38:48.509Z,77.5
2022-11-10T12:39:57.679Z,76.5
2022-11-10T12:41:05.863Z,76
2022-11-10T12:43:24.217Z,74
2022-11-10T12:44:33.382Z,76
2022-11-10T12:45:42.579Z,74.5
2022-11-10T12:46:51.727Z,73.5
2022-11-10T12:48:00.938Z,73.5
2022-11-10T12:49:10.073Z,73
2022-11-10T12:50:19.240Z,73
2022-11-10T12:51:28.410Z,72
2022-11-10T12:52:37.586Z,73
2022-11-10T12:53:46.758Z,72.5
2022-11-10T12:54:55.927Z,72.5
2022-11-10T12:56:04.119Z,72.5
2022-11-10T12:57:13.274Z,71
2022-11-10T12:58:21.489Z,71.5
2022-11-10T12:59:29.684Z,71
2022-11-10T13:00:38.874Z,71.5
2022-11-10T13:01:47.046Z,72
2022-11-10T13:02:55.242Z,72.5
2022-11-10T13:04:04.395Z,71.5
2022-11-10T13:05:13.589Z,72
2022-11-10T13:06:22.779Z,73
2022-11-10T13:07:31.937Z,72
2022-11-10T13:08:41.463Z,73.5
2022-11-10T13:09:50.331Z,71.5
2022-11-10T13:10:59.433Z,70
2022-11-10T13:12:08.745Z,70.5
2022-11-10T13:13:17.765Z,71
2022-11-10T13:14:26.948Z,69.5
2022-11-10T13:15:36.123Z,70.5
2022-11-10T13:16:45.389Z,69.5
2022-11-10T13:17:53.474Z,70.5
2022-11-10T13:19:02.710Z,72
2022-11-10T13:21:21.058Z,72.5
2022-11-10T13:22:30.198Z,71.5
2022-11-10T13:23:39.366Z,70.5
2022-11-10T13:24:48.581Z,70.5
2022-11-10T13:25:56.853Z,70
2022-11-10T13:27:04.900Z,71
2022-11-10T13:28:13.102Z,71
2022-11-10T13:29:22.246Z,71
2022-11-10T13:30:30.465Z,71
2022-11-10T13:31:38.702Z,72.5
2022-11-10T13:32:47.843Z,71
2022-11-10T13:33:57.095Z,71
2022-11-10T13:35:06.162Z,70
2022-11-10T13:36:15.481Z,70.5
2022-11-10T13:37:24.510Z,71
2022-11-10T13:38:33.675Z,72.5
2022-11-10T13:39:42.928Z,71.5
2022-11-10T13:40:52.028Z,70.5
2022-11-10T13:42:01.332Z,71
2022-11-10T13:43:10.393Z,70
2022-11-10T13:44:19.535Z,68.5
2022-11-10T13:45:28.709Z,69
2022-11-10T13:46:37.031Z,69
2022-11-10T13:47:46.127Z,69
2022-11-10T13:48:55.337Z,69
2022-11-10T13:50:04.445Z,68.5
2022-11-10T13:51:13.590Z,70.5
2022-11-10T13:52:22.766Z,70
2022-11-10T13:53:32.026Z,70
2022-11-10T13:54:41.095Z,70.5
2022-11-10T13:55:50.273Z,70
2022-11-10T13:56:59.477Z,70.5
2022-11-10T13:58:08.672Z,69.5
2022-11-10T13:59:17.785Z,68.5
2022-11-10T14:00:26.959Z,69
2022-11-10T14:01:35.152Z,69.5
2022-11-10T14:02:44.390Z,69.5
2022-11-10T14:03:53.506Z,68.5
2022-11-10T14:05:02.669Z,69
2022-11-10T14:06:11.829Z,69
2022-11-10T14:07:21.028Z,69.5
2022-11-10T14:08:29.231Z,70
2022-11-10T14:09:37.404Z,69.5
2022-11-10T14:10:45.597Z,69.5
2022-11-10T14:11:53.831Z,71.5
2022-11-10T14:13:02.956Z,71
2022-11-10T14:14:12.139Z,71
2022-11-10T14:15:21.293Z,70.5
2022-11-10T14:16:30.471Z,70
2022-11-10T14:17:39.639Z,71
2022-11-10T14:18:48.812Z,69.5
2022-11-10T14:19:58.092Z,70.5
2022-11-10T14:21:07.156Z,70
2022-11-10T14:22:16.321Z,69.5
2022-11-10T14:23:25.494Z,69.5
2022-11-10T14:24:34.668Z,70
2022-11-10T14:25:43.843Z,71
2022-11-10T14:26:52.031Z,72
2022-11-10T14:29:10.381Z,74
2022-11-10T14:30:19.541Z,73.5
2022-11-10T14:31:28.813Z,73
2022-11-10T14:32:37.967Z,73.5
2022-11-10T14:33:47.067Z,73.5
2022-11-10T14:34:56.249Z,73
2022-11-10T14:36:04.438Z,73
2022-11-10T14:37:12.639Z,73.5
2022-11-10T14:38:21.800Z,73.5
2022-11-10T14:39:31.014Z,73.5
2022-11-10T14:40:40.138Z,73
2022-11-10T14:41:48.336Z,73
2022-11-10T14:42:57.506Z,73.5
2022-11-10T14:44:05.840Z,74
2022-11-10T14:45:14.851Z,73.5
2022-11-10T14:46:24.037Z,74
2022-11-10T14:47:33.242Z,73.5
2022-11-10T14:48:42.384Z,73.5
2022-11-10T14:49:51.556Z,73
2022-11-10T14:51:00.734Z,74.5
2022-11-10T14:52:09.983Z,75
2022-11-10T14:53:19.093Z,75
2022-11-10T14:54:28.244Z,74.5
2022-11-10T14:55:37.439Z,74.5
2022-11-10T14:56:46.633Z,73.5
2022-11-10T14:57:55.751Z,74.5
2022-11-10T14:59:03.952Z,73.5
2022-11-10T15:00:13.113Z,74
2022-11-10T15:01:22.280Z,74
2022-11-10T15:02:31.468Z,73.5
2022-11-10T15:03:40.637Z,75
2022-11-10T15:04:49.875Z,73.5
2022-11-10T15:05:58.073Z,74
2022-11-10T15:07:06.188Z,74.5
2022-11-10T15:08:14.391Z,74.5
2022-11-10T15:09:22.584Z,75
2022-11-10T15:10:31.740Z,75.5
2022-11-10T15:11:40.914Z,75
2022-11-10T15:12:50.087Z,75.5
2022-11-10T15:13:59.255Z,75
2022-11-10T15:15:08.434Z,74.5
2022-11-10T15:16:17.596Z,75.5
2022-11-10T15:17:27.007Z,76.5
2022-11-10T15:18:35.948Z,76
2022-11-10T15:19:45.127Z,77
2022-11-10T15:20:54.286Z,76
2022-11-10T15:22:03.463Z,75.5
2022-11-10T15:23:12.639Z,75
2022-11-10T15:24:20.837Z,77.5
2022-11-10T15:25:30.005Z,76
2022-11-10T15:26:39.182Z,76
2022-11-10T15:27:48.349Z,76.5
2022-11-10T15:28:57.519Z,77.5
2022-11-10T15:30:06.701Z,76
2022-11-10T15:31:15.862Z,76
2022-11-10T15:32:25.056Z,76.5
2022-11-10T15:33:34.206Z,76
2022-11-10T15:34:43.383Z,76.5
2022-11-10T15:35:52.554Z,76
2022-11-10T15:37:01.763Z,76
2022-11-10T15:38:10.948Z,76
2022-11-10T15:39:19.114Z,75.5
2022-11-10T15:40:27.283Z,76.5
2022-11-10T15:41:36.459Z,76
2022-11-10T15:42:45.627Z,76
2022-11-10T15:43:54.787Z,77
2022-11-10T15:45:04.053Z,77
2022-11-10T15:46:12.167Z,77
2022-11-10T15:47:20.453Z,77
2022-11-10T15:48:29.521Z,77.5